Terminal Aerodrome Forecast
Issued by NWS

Home | Current Version | Previous Version | Text Only | Print | Product List | Glossary Off
Versions: 1 2 3 4 5 6 7 8 9 10 11 12 13 14 15 16 17 18 19 20 21 22 23 24 25 26

000
FTUS43 KLOT 242322
TAFORD
TAF
KORD 242322Z 2500/2606 09009KT P6SM SCT060
     FM250300 10007KT P6SM SCT060
     FM251200 14008KT P6SM VCSH BKN050
     FM251500 16011KT P6SM BKN070
     FM252300 19008KT P6SM VCSH BKN060
      TEMPO 2600/2603 3SM TSRA SCT025 OVC035CB
     FM260300 28011KT P6SM BKN060=

USA.gov is the U.S. government's official web portal to all federal, state and local government web resources and services.